| time (UTC) | temp C | wind direction | speed KPH | gust KPH | rain 1hr cm | rain 24hr cm | rain mn cm | humidity % | barometer mb |
| 20260506224018 | 22 | 243 | 16.1 | 27.4 | 0.00 | 0.00 | 0.00 | 45 | 1012.5 |
| 20260506223017 | 22 | 245 | 17.7 | 27.4 | 0.00 | 0.00 | 0.00 | 44 | 1012.5 |
| 20260506222050 | 22 | 218 | 9.7 | 16.1 | 0.00 | 0.00 | 0.00 | 43 | 1012.5 |
| 20260506221028 | 22 | 216 | 12.9 | 24.1 | 0.00 | 0.00 | 0.00 | 44 | 1012.5 |
| 20260506220028 | 22 | 222 | 14.5 | 27.4 | 0.00 | 0.00 | 0.00 | 43 | 1012.5 |
| 20260506215028 | 22 | 230 | 11.3 | 22.5 | 0.00 | 0.00 | 0.00 | 42 | 1012.5 |
| 20260506214027 | 22 | 213 | 11.3 | 22.5 | 0.00 | 0.00 | 0.00 | 43 | 1012.8 |
| 20260506213025 | 22 | 219 | 12.9 | 24.1 | 0.00 | 0.00 | 0.00 | 45 | 1012.8 |
| 20260506212024 | 22 | 224 | 12.9 | 24.1 | 0.00 | 0.00 | 0.00 | 44 | 1012.8 |
| 20260506211024 | 22 | 237 | 11.3 | 24.1 | 0.00 | 0.00 | 0.00 | 45 | 1012.8 |
| 20260506210020 | 21 | 217 | 11.3 | 22.5 | 0.00 | 0.00 | 0.00 | 45 | 1013.0 |
| 20260506205019 | 21 | 224 | 11.3 | 25.7 | 0.00 | 0.00 | 0.00 | 45 | 1013.2 |
| 20260506204017 | 21 | 213 | 12.9 | 24.1 | 0.00 | 0.00 | 0.00 | 45 | 1013.2 |
| 20260506203029 | 21 | 210 | 12.9 | 24.1 | 0.00 | 0.00 | 0.00 | 49 | 1013.2 |
| 20260506202030 | 21 | 211 | 14.5 | 25.7 | 0.00 | 0.00 | 0.00 | 48 | 1013.2 |
| 20260506201049 | 21 | 217 | 11.3 | 27.4 | 0.00 | 0.00 | 0.00 | 47 | 1013.2 |
| 20260506200029 | 21 | 214 | 16.1 | 27.4 | 0.00 | 0.00 | 0.00 | 48 | 1013.3 |
| 20260506195028 | 20 | 216 | 11.3 | 24.1 | 0.00 | 0.00 | 0.00 | 51 | 1013.4 |
| 20260506194048 | 20 | 209 | 12.9 | 25.7 | 0.00 | 0.00 | 0.00 | 51 | 1013.6 |
| 20260506193026 | 20 | 219 | 9.7 | 24.1 | 0.00 | 0.00 | 0.00 | 50 | 1013.5 |
| 20260506192026 | 20 | 217 | 12.9 | 22.5 | 0.00 | 0.00 | 0.00 | 51 | 1013.6 |
| 20260506191026 | 20 | 225 | 9.7 | 16.1 | 0.00 | 0.00 | 0.00 | 52 | 1013.5 |
| 20260506190025 | 19 | 226 | 12.9 | 27.4 | 0.00 | 0.00 | 0.00 | 52 | 1013.6 |
| 20260506185020 | 19 | 207 | 17.7 | 32.2 | 0.00 | 0.00 | 0.00 | 52 | 1013.6 |
| 20260506184018 | 19 | 214 | 16.1 | 29.0 | 0.00 | 0.00 | 0.00 | 50 | 1013.6 |
| 20260506183037 | 19 | 215 | 12.9 | 22.5 | 0.00 | 0.00 | 0.00 | 52 | 1013.6 |
| 20260506182049 | 19 | 216 | 12.9 | 25.7 | 0.00 | 0.00 | 0.00 | 52 | 1013.6 |
| 20260506181029 | 18 | 211 | 12.9 | 27.4 | 0.00 | 0.00 | 0.00 | 53 | 1013.6 |
| 20260506180028 | 18 | 215 | 16.1 | 25.7 | 0.00 | 0.00 | 0.00 | 51 | 1013.7 |
| 20260506175049 | 18 | 206 | 14.5 | 27.4 | 0.00 | 0.00 | 0.00 | 51 | 1013.8 |
| 20260506174047 | 18 | 207 | 12.9 | 24.1 | 0.00 | 0.00 | 0.00 | 52 | 1013.9 |
| 20260506173025 | 18 | 222 | 9.7 | 16.1 | 0.00 | 0.00 | 0.00 | 52 | 1013.9 |
| 20260506172040 | 18 | 207 | 14.5 | 25.7 | 0.00 | 0.00 | 0.00 | 52 | 1013.9 |
| 20260506171019 | 18 | 210 | 9.7 | 17.7 | 0.00 | 0.00 | 0.00 | 53 | 1013.9 |
| 20260506170017 | 17 | 199 | 11.3 | 22.5 | 0.00 | 0.00 | 0.00 | 51 | 1013.9 |
| 20260506165017 | 17 | 220 | 9.7 | 22.5 | 0.00 | 0.00 | 0.00 | 51 | 1013.9 |
| 20260506164031 | 17 | 210 | 12.9 | 20.9 | 0.00 | 0.00 | 0.00 | 51 | 1013.9 |
| 20260506163029 | 17 | 209 | 11.3 | 22.5 | 0.00 | 0.00 | 0.00 | 52 | 1013.9 |
| 20260506162028 | 17 | 205 | 12.9 | 24.1 | 0.00 | 0.00 | 0.00 | 52 | 1013.7 |
| 20260506161045 | 17 | 204 | 9.7 | 20.9 | 0.00 | 0.00 | 0.00 | 50 | 1013.8 |
| 20260506160025 | 16 | 198 | 8.0 | 22.5 | 0.00 | 0.00 | 0.00 | 48 | 1013.8 |
| 20260506155025 | 16 | 193 | 8.0 | 16.1 | 0.00 | 0.00 | 0.00 | 49 | 1013.8 |
| 20260506154024 | 16 | 208 | 3.2 | 8.0 | 0.00 | 0.00 | 0.00 | 45 | 1013.9 |
| 20260506153024 | 16 | 185 | 1.6 | 3.2 | 0.00 | 0.00 | 0.00 | 44 | 1013.9 |
| 20260506152019 | 15 | 174 | 3.2 | 4.8 | 0.00 | 0.00 | 0.00 | 43 | 1013.9 |
| 20260506151059 | 15 | 74 | 3.2 | 8.0 | 0.00 | 0.00 | 0.00 | 41 | 1013.9 |
| 20260506150017 | 15 | 83 | 3.2 | 8.0 | 0.00 | 0.00 | 0.00 | 43 | 1013.9 |
| 20260506145018 | 15 | 31 | 6.4 | 11.3 | 0.00 | 0.00 | 0.00 | 40 | 1013.9 |
| 20260506144019 | 15 | 40 | 6.4 | 12.9 | 0.00 | 0.00 | 0.00 | 40 | 1013.9 |
| 20260506143019 | 14 | 31 | 3.2 | 9.7 | 0.00 | 0.00 | 0.00 | 39 | 1013.9 |
| 20260506142017 | 14 | 32 | 6.4 | 11.3 | 0.00 | 0.00 | 0.00 | 39 | 1013.9 |
| 20260506141017 | 13 | 48 | 4.8 | 9.7 | 0.00 | 0.00 | 0.00 | 40 | 1013.9 |
| 20260506140037 | 13 | 22 | 8.0 | 12.9 | 0.00 | 0.00 | 0.00 | 40 | 1013.7 |
| 20260506135037 | 13 | 37 | 6.4 | 14.5 | 0.00 | 0.00 | 0.00 | 44 | 1013.6 |
| 20260506134017 | 12 | 42 | 6.4 | 14.5 | 0.00 | 0.00 | 0.00 | 45 | 1013.6 |
| 20260506133017 | 12 | 29 | 9.7 | 14.5 | 0.00 | 0.00 | 0.00 | 43 | 1013.4 |
| 20260506132039 | 12 | 46 | 6.4 | 14.5 | 0.00 | 0.00 | 0.00 | 43 | 1013.3 |
| 20260506131020 | 12 | 30 | 8.0 | 16.1 | 0.00 | 0.00 | 0.00 | 43 | 1013.2 |
| 20260506130019 | 12 | 22 | 9.7 | 16.1 | 0.00 | 0.00 | 0.00 | 44 | 1013.2 |
| 20260506125018 | 12 | 27 | 8.0 | 12.9 | 0.00 | 0.00 | 0.00 | 43 | 1013.2 |
| 20260506124025 | 12 | 19 | 11.3 | 17.7 | 0.00 | 0.00 | 0.00 | 41 | 1013.2 |
| 20260506123046 | 12 | 21 | 11.3 | 17.7 | 0.00 | 0.00 | 0.00 | 42 | 1013.0 |
| 20260506122025 | 12 | 25 | 11.3 | 16.1 | 0.00 | 0.00 | 0.00 | 41 | 1013.0 |
| 20260506121024 | 12 | 32 | 9.7 | 20.9 | 0.00 | 0.00 | 0.00 | 40 | 1012.9 |
| 20260506120019 | 13 | 38 | 9.7 | 16.1 | 0.00 | 0.00 | 0.00 | 41 | 1012.8 |
| 20260506115016 | 13 | 357 | 12.9 | 17.7 | 0.00 | 0.00 | 0.00 | 41 | 1012.8 |
| 20260506114030 | 13 | 7 | 14.5 | 20.9 | 0.00 | 0.00 | 0.00 | 40 | 1012.8 |
| 20260506113016 | 13 | 19 | 12.9 | 16.1 | 0.00 | 0.00 | 0.00 | 40 | 1012.9 |
| 20260506112016 | 12 | 18 | 11.3 | 16.1 | 0.00 | 0.00 | 0.00 | 40 | 1012.9 |
| 20260506111016 | 12 | 14 | 9.7 | 16.1 | 0.00 | 0.00 | 0.00 | 41 | 1012.9 |
| 20260506110029 | 12 | 9 | 11.3 | 22.5 | 0.00 | 0.00 | 0.00 | 42 | 1013.0 |
| 20260506105028 | 12 | 13 | 9.7 | 17.7 | 0.00 | 0.00 | 0.00 | 42 | 1012.8 |
| 20260506104029 | 12 | 357 | 9.7 | 14.5 | 0.00 | 0.00 | 0.00 | 44 | 1012.8 |
| 20260506103028 | 12 | 7 | 11.3 | 16.1 | 0.00 | 0.00 | 0.00 | 43 | 1012.8 |
| 20260506102027 | 12 | 16 | 8.0 | 16.1 | 0.00 | 0.00 | 0.00 | 44 | 1012.8 |
| 20260506101026 | 12 | 55 | 4.8 | 11.3 | 0.00 | 0.00 | 0.00 | 42 | 1012.8 |
| 20260506100025 | 12 | 33 | 9.7 | 16.1 | 0.00 | 0.00 | 0.00 | 42 | 1012.9 |
| 20260506095026 | 12 | 30 | 8.0 | 14.5 | 0.00 | 0.00 | 0.00 | 44 | 1012.8 |
| 20260506094025 | 12 | 17 | 11.3 | 17.7 | 0.00 | 0.00 | 0.00 | 43 | 1012.8 |
| 20260506093024 | 12 | 31 | 11.3 | 20.9 | 0.00 | 0.00 | 0.00 | 44 | 1012.9 |
| 20260506092039 | 12 | 19 | 11.3 | 17.7 | 0.00 | 0.00 | 0.00 | 41 | 1013.0 |
| 20260506091020 | 13 | 21 | 11.3 | 17.7 | 0.00 | 0.00 | 0.00 | 42 | 1012.8 |
| 20260506090018 | 13 | 12 | 17.7 | 24.1 | 0.00 | 0.00 | 0.00 | 42 | 1012.8 |
| 20260506085020 | 13 | 6 | 12.9 | 17.7 | 0.00 | 0.00 | 0.00 | 41 | 1012.9 |
| 20260506084039 | 13 | 23 | 14.5 | 20.9 | 0.00 | 0.00 | 0.00 | 41 | 1013.0 |
| 20260506083018 | 13 | 8 | 14.5 | 20.9 | 0.00 | 0.00 | 0.00 | 42 | 1012.8 |
| 20260506082038 | 13 | 19 | 12.9 | 17.7 | 0.00 | 0.00 | 0.00 | 41 | 1012.8 |
| 20260506081018 | 13 | 24 | 14.5 | 22.5 | 0.00 | 0.00 | 0.00 | 41 | 1012.8 |
| 20260506073028 | 12 | 20 | 12.9 | 17.7 | 0.00 | 0.00 | 0.00 | 44 | 1012.8 |
| 20260506072028 | 12 | 355 | 9.7 | 14.5 | 0.00 | 0.00 | 0.00 | 47 | 1012.8 |
| 20260506071047 | 11 | 68 | 3.2 | 8.0 | 0.00 | 0.00 | 0.00 | 49 | 1012.8 |
| 20260506062026 | 12 | 32 | 6.4 | 11.3 | 0.00 | 0.00 | 0.00 | 51 | 1012.5 |
| 20260506061025 | 13 | 39 | 4.8 | 9.7 | 0.00 | 0.00 | 0.00 | 50 | 1012.4 |
| 20260506051026 | 15 | 85 | 3.2 | 4.8 | 0.00 | 0.00 | 0.00 | 41 | 1012.1 |
| 20260506045016 | 13 | 20 | 4.8 | 8.0 | 0.00 | 0.00 | 0.00 | 40 | 1012.0 |
| 20260506044030 | 15 | 10 | 6.4 | 9.7 | 0.00 | 0.00 | 0.00 | 42 | 1011.8 |
| 20260506043029 | 15 | 117 | 1.6 | 3.2 | 0.00 | 0.00 | 0.00 | 45 | 1011.8 |
| 20260506042017 | 16 | 170 | 1.6 | 3.2 | 0.00 | 0.00 | 0.00 | 47 | 1011.8 |
| 20260506041037 | 17 | 6 | 3.2 | 8.0 | 0.00 | 0.00 | 0.00 | 34 | 1011.7 |
| 20260506040018 | 17 | 353 | 4.8 | 9.7 | 0.00 | 0.00 | 0.00 | 33 | 1011.6 |
| 20260506035016 | 17 | 353 | 6.4 | 9.7 | 0.00 | 0.00 | 0.00 | 33 | 1011.5 |
| 20260506034028 | 17 | 360 | 8.0 | 12.9 | 0.00 | 0.00 | 0.00 | 32 | 1011.4 |
| 20260506033029 | 17 | 348 | 4.8 | 4.8 | 0.00 | 0.00 | 0.00 | 35 | 1011.4 |
| 20260506032030 | 17 | 353 | 6.4 | 8.0 | 0.00 | 0.00 | 0.00 | 35 | 1011.4 |
| 20260506031028 | 17 | 358 | 6.4 | 9.7 | 0.00 | 0.00 | 0.00 | 34 | 1011.4 |
| 20260506030028 | 17 | 347 | 4.8 | 8.0 | 0.00 | 0.00 | 0.00 | 35 | 1011.3 |
| 20260506025016 | 17 | 2 | 8.0 | 11.3 | 0.00 | 0.00 | 0.00 | 36 | 1011.1 |
| 20260506024018 | 18 | 358 | 6.4 | 9.7 | 0.00 | 0.00 | 0.00 | 34 | 1011.1 |
| 20260506023017 | 18 | 355 | 6.4 | 9.7 | 0.00 | 0.00 | 0.00 | 33 | 1011.2 |
| 20260506022040 | 18 | 334 | 3.2 | 4.8 | 0.00 | 0.00 | 0.00 | 33 | 1011.3 |
| 20260506021025 | 19 | 334 | 3.2 | 3.2 | 0.00 | 0.00 | 0.00 | 34 | 1011.1 |
| 20260506020044 | 19 | 343 | 3.2 | 4.8 | 0.00 | 0.00 | 0.00 | 33 | 1011.1 |
| 20260506015017 | 19 | 358 | 3.2 | 4.8 | 0.00 | 0.00 | 0.00 | 32 | 1011.4 |
| 20260506014016 | 20 | 1 | 3.2 | 4.8 | 0.00 | 0.00 | 0.00 | 33 | 1011.2 |
| 20260506012016 | 20 | 8 | 4.8 | 9.7 | 0.00 | 0.00 | 0.00 | 29 | 1011.3 |
| 20260506011016 | 20 | 18 | 6.4 | 9.7 | 0.00 | 0.00 | 0.00 | 30 | 1011.4 |
| 20260506010016 | 20 | 351 | 4.8 | 8.0 | 0.00 | 0.00 | 0.00 | 29 | 1011.3 |
| 20260506005018 | 20 | 15 | 8.0 | 14.5 | 0.00 | 0.00 | 0.00 | 29 | 1011.4 |
| 20260506004017 | 20 | 7 | 9.7 | 14.5 | 0.00 | 0.00 | 0.00 | 30 | 1011.4 |
| 20260506003030 | 20 | 6 | 8.0 | 14.5 | 0.00 | 0.00 | 0.00 | 29 | 1011.4 |
| 20260506002030 | 21 | 360 | 12.9 | 24.1 | 0.00 | 0.00 | 0.00 | 29 | 1011.4 |
| 20260506001026 | 21 | 349 | 6.4 | 12.9 | 0.00 | 0.00 | 0.00 | 28 | 1011.7 |
| 20260506000026 | 21 | 17 | 12.9 | 24.1 | 0.00 | 0.00 | 0.00 | 28 | 1011.7 |
| 20260505235025 | 21 | 43 | 6.4 | 16.1 | 0.00 | 0.00 | 0.00 | 29 | 1011.7 |
| 20260505234025 | 21 | 20 | 4.8 | 12.9 | 0.00 | 0.00 | 0.00 | 29 | 1011.7 |
| 20260505233024 | 21 | 348 | 9.7 | 17.7 | 0.00 | 0.00 | 0.00 | 30 | 1011.7 |
| 20260505232020 | 21 | 27 | 8.0 | 17.7 | 0.00 | 0.00 | 0.00 | 30 | 1011.9 |
| 20260505231035 | 21 | 23 | 9.7 | 14.5 | 0.00 | 0.00 | 0.00 | 32 | 1011.8 |
| 20260505230029 | 21 | 23 | 9.7 | 22.5 | 0.00 | 0.00 | 0.00 | 32 | 1012.0 |
| 20260505225027 | 21 | 10 | 9.7 | 20.9 | 0.00 | 0.00 | 0.00 | 34 | 1012.0 |